createdAt,value
2022-11-27T00:01:12.829Z,102559.03
2022-11-27T00:03:40.561Z,102557.19
2022-11-27T00:06:08.115Z,102548.34
2022-11-27T00:08:37.661Z,102541.41
2022-11-27T00:11:12.107Z,102546.66
2022-11-27T00:13:39.426Z,102544.13
2022-11-27T00:16:07.052Z,102540.72
2022-11-27T00:18:34.170Z,102527.41
2022-11-27T00:21:10.836Z,102534.84
2022-11-27T00:23:37.980Z,102535.94
2022-11-27T00:26:08.490Z,102523.59
2022-11-27T00:28:36.115Z,102520.97
2022-11-27T00:31:07.346Z,102512.94
2022-11-27T00:33:33.932Z,102518.50
2022-11-27T00:36:07.976Z,102500.09
2022-11-27T00:38:38.805Z,102511.78
2022-11-27T00:41:11.492Z,102513.50
2022-11-27T00:43:44.586Z,102515.44
2022-11-27T00:46:20.815Z,102522.69
2022-11-27T00:48:49.409Z,102512.16
2022-11-27T00:51:21.302Z,102504.19
2022-11-27T00:53:48.621Z,102505.78
2022-11-27T00:56:18.940Z,102505.00
2022-11-27T00:58:45.941Z,102507.78
2022-11-27T01:01:22.020Z,102499.88
2022-11-27T01:03:49.667Z,102500.78
2022-11-27T01:06:18.045Z,102472.31
2022-11-27T01:08:45.074Z,102479.25
2022-11-27T01:11:33.471Z,102462.47
2022-11-27T01:14:03.471Z,102474.88
2022-11-27T01:16:34.356Z,102472.31
2022-11-27T01:19:05.222Z,102462.47
2022-11-27T01:21:34.545Z,102472.41
2022-11-27T01:24:04.503Z,102472.47
2022-11-27T01:26:31.390Z,102473.47
2022-11-27T01:28:58.985Z,102455.59
2022-11-27T01:31:29.356Z,102467.13
2022-11-27T01:34:05.180Z,102461.72
2022-11-27T01:36:33.017Z,102462.53
2022-11-27T01:39:02.948Z,102454.31
2022-11-27T01:41:40.013Z,102452.56
2022-11-27T01:44:24.924Z,102457.91
2022-11-27T01:47:03.751Z,102453.34
2022-11-27T01:49:52.170Z,102449.69
2022-11-27T01:52:30.052Z,102453.19
2022-11-27T01:55:01.911Z,102442.34
2022-11-27T01:57:38.995Z,102423.38
2022-11-27T02:00:08.278Z,102418.84
2022-11-27T02:02:34.840Z,102407.09
2022-11-27T02:05:03.706Z,102409.03
2022-11-27T02:07:30.472Z,102395.63
2022-11-27T02:09:57.056Z,102403.00
2022-11-27T02:12:53.644Z,102405.09
2022-11-27T02:15:41.774Z,102375.84
2022-11-27T02:18:16.777Z,102375.06
2022-11-27T02:20:50.329Z,102366.28
2022-11-27T02:23:31.736Z,102372.94
2022-11-27T02:26:30.612Z,102369.47
2022-11-27T02:29:13.660Z,102370.66
2022-11-27T02:31:47.216Z,102367.25
2022-11-27T02:34:20.015Z,102366.47
2022-11-27T02:36:53.152Z,102358.44
2022-11-27T02:39:26.666Z,102350.72
2022-11-27T02:42:11.669Z,102354.28
2022-11-27T02:44:45.310Z,102362.31
2022-11-27T02:47:13.482Z,102358.66
2022-11-27T02:49:42.974Z,102353.50
2022-11-27T02:52:12.913Z,102359.47
2022-11-27T02:54:41.433Z,102359.38
2022-11-27T02:57:10.745Z,102371.56
2022-11-27T02:59:38.516Z,102351.88
2022-11-27T03:02:14.978Z,102364.94
2022-11-27T03:04:47.548Z,102354.34
2022-11-27T03:07:42.393Z,102368.28
2022-11-27T03:10:19.561Z,102367.44
2022-11-27T03:12:47.984Z,102353.03
2022-11-27T03:15:14.751Z,102357.91
2022-11-27T03:17:41.212Z,102345.25
2022-11-27T03:20:17.478Z,102347.00
2022-11-27T03:22:44.105Z,102340.63
2022-11-27T03:25:10.814Z,102339.59
2022-11-27T03:27:47.313Z,102331.78
2022-11-27T03:30:16.368Z,102338.63
2022-11-27T03:32:43.254Z,102347.72
2022-11-27T03:35:12.506Z,102332.50
2022-11-27T03:37:39.315Z,102342.19
2022-11-27T03:40:07.539Z,102334.06
2022-11-27T03:42:56.145Z,102327.59
2022-11-27T03:45:43.030Z,102318.44
2022-11-27T03:48:33.769Z,102304.91
2022-11-27T03:51:36.774Z,102312.13
2022-11-27T03:54:52.823Z,102325.75
2022-11-27T03:57:34.583Z,102328.47
2022-11-27T04:00:06.541Z,102330.31
2022-11-27T04:02:50.298Z,102312.38
2022-11-27T04:05:18.133Z,102317.53
2022-11-27T04:07:44.674Z,102309.59
2022-11-27T04:10:11.933Z,102326.56
2022-11-27T04:12:38.701Z,102332.16
2022-11-27T04:15:06.193Z,102333.72
2022-11-27T04:17:33.155Z,102333.72
2022-11-27T04:19:59.870Z,102330.06
2022-11-27T04:22:26.465Z,102322.81
2022-11-27T04:24:53.070Z,102321.06
2022-11-27T04:27:19.718Z,102329.13
2022-11-27T04:29:46.316Z,102317.53
2022-11-27T04:32:12.855Z,102326.19
2022-11-27T04:34:39.681Z,102318.34
2022-11-27T04:37:08.998Z,102311.88
2022-11-27T04:39:35.544Z,102319.75
2022-11-27T04:42:02.058Z,102317.81
2022-11-27T04:44:28.653Z,102322.22
2022-11-27T04:46:55.260Z,102298.94
2022-11-27T04:49:24.212Z,102296.06
2022-11-27T04:51:50.908Z,102292.47
2022-11-27T04:54:19.766Z,102289.00
2022-11-27T04:56:46.277Z,102254.78
2022-11-27T04:59:12.839Z,102274.63
2022-11-27T05:01:39.350Z,102270.28
2022-11-27T05:04:05.913Z,102252.16
2022-11-27T05:06:32.495Z,102276.56
2022-11-27T05:09:02.333Z,102269.38
2022-11-27T05:11:30.560Z,102270.00
2022-11-27T05:14:15.227Z,102262.06
2022-11-27T05:16:42.252Z,102259.34
2022-11-27T05:19:10.717Z,102262.66
2022-11-27T05:21:38.447Z,102266.06
2022-11-27T05:24:05.487Z,102261.34
2022-11-27T05:26:34.570Z,102262.16
2022-11-27T05:29:01.462Z,102256.72
2022-11-27T05:31:28.328Z,102247.19
2022-11-27T05:33:54.976Z,102251.22
2022-11-27T05:36:21.695Z,102258.44
2022-11-27T05:38:53.121Z,102223.03
2022-11-27T05:41:20.029Z,102251.13
2022-11-27T05:43:49.852Z,102259.94
2022-11-27T05:46:19.893Z,102259.88
2022-11-27T05:48:46.477Z,102246.47
2022-11-27T05:51:13.469Z,102232.25
2022-11-27T05:53:40.351Z,102246.13
2022-11-27T05:56:09.825Z,102234.28
2022-11-27T05:58:37.233Z,102228.00
2022-11-27T06:01:04.747Z,102235.97
2022-11-27T06:03:31.490Z,102223.28
2022-11-27T06:05:58.097Z,102224.06
2022-11-27T06:08:24.667Z,102225.03
2022-11-27T06:10:51.249Z,102222.50
2022-11-27T06:13:17.890Z,102230.38
2022-11-27T06:15:44.507Z,102221.25
2022-11-27T06:18:11.901Z,102225.81
2022-11-27T06:20:43.739Z,102223.09
2022-11-27T06:23:11.307Z,102221.25
2022-11-27T06:25:40.290Z,102213.91
2022-11-27T06:28:09.598Z,102206.91
2022-11-27T06:30:37.872Z,102208.41
2022-11-27T06:33:04.455Z,102202.28
2022-11-27T06:35:32.054Z,102204.97
2022-11-27T06:37:58.661Z,102196.16
2022-11-27T06:40:25.190Z,102214.53
2022-11-27T06:42:51.665Z,102217.06
2022-11-27T06:45:18.154Z,102215.19
2022-11-27T06:47:45.464Z,102216.06
2022-11-27T06:50:12.042Z,102202.91
2022-11-27T06:52:40.560Z,102185.91
2022-11-27T06:55:07.863Z,102191.16
2022-11-27T06:57:34.392Z,102191.84
2022-11-27T07:00:00.898Z,102194.38
2022-11-27T07:02:27.606Z,102193.41
2022-11-27T07:04:56.509Z,102185.47
2022-11-27T07:07:23.099Z,102196.03
2022-11-27T07:09:49.725Z,102185.19
2022-11-27T07:12:16.224Z,102179.00
2022-11-27T07:14:42.900Z,102162.22
2022-11-27T07:17:12.019Z,102157.84
2022-11-27T07:19:38.630Z,102162.81
2022-11-27T07:22:07.412Z,102164.53
2022-11-27T07:24:34.025Z,102144.38
2022-11-27T07:27:00.573Z,102153.09
2022-11-27T07:29:27.095Z,102140.81
2022-11-27T07:31:53.730Z,102139.22
2022-11-27T07:34:21.886Z,102159.19
2022-11-27T07:36:48.698Z,102136.81
2022-11-27T07:39:22.258Z,102129.94
2022-11-27T07:42:23.235Z,102143.16
2022-11-27T07:44:49.442Z,102135.97
2022-11-27T07:47:16.055Z,102126.06
2022-11-27T07:49:42.663Z,102124.16
2022-11-27T07:52:11.681Z,102116.97
2022-11-27T07:54:40.624Z,102103.41
2022-11-27T07:57:07.733Z,102092.84
2022-11-27T07:59:34.516Z,102091.81
2022-11-27T08:02:01.125Z,102094.50
2022-11-27T08:04:30.247Z,102090.03
2022-11-27T08:06:57.659Z,102073.09
2022-11-27T08:09:26.856Z,102092.66
2022-11-27T08:11:53.416Z,102095.38
2022-11-27T08:14:20.038Z,102100.63
2022-11-27T08:16:46.725Z,102089.88
2022-11-27T08:19:13.731Z,102098.78
2022-11-27T08:21:40.350Z,102100.72
2022-11-27T08:24:07.203Z,102104.97
2022-11-27T08:26:33.840Z,102107.59
2022-11-27T08:29:00.614Z,102091.41
2022-11-27T08:31:27.458Z,102100.94
2022-11-27T08:33:54.185Z,102097.13
2022-11-27T08:36:20.802Z,102099.66
2022-11-27T08:38:47.368Z,102064.28
2022-11-27T08:41:14.565Z,102082.34
2022-11-27T08:43:41.169Z,102081.56
2022-11-27T08:46:07.828Z,102086.59
2022-11-27T08:48:35.430Z,102087.47
2022-11-27T08:51:07.403Z,102085.72
2022-11-27T08:53:34.713Z,102093.47
2022-11-27T08:56:13.976Z,102100.56
2022-11-27T08:58:41.259Z,102098.72
2022-11-27T09:01:12.558Z,102094.06
2022-11-27T09:03:41.532Z,102100.16
2022-11-27T09:06:13.563Z,102101.06
2022-11-27T09:08:41.063Z,102105.41
2022-11-27T09:11:09.061Z,102089.13
2022-11-27T09:13:40.190Z,102075.75
2022-11-27T09:16:09.840Z,102088.91
2022-11-27T09:18:39.188Z,102093.41
2022-11-27T09:21:11.487Z,102097.63
2022-11-27T09:23:39.109Z,102095.72
2022-11-27T09:26:08.574Z,102098.25
2022-11-27T09:28:36.197Z,102091.16
2022-11-27T09:31:06.736Z,102096.09
2022-11-27T09:33:34.850Z,102094.16
2022-11-27T09:36:22.797Z,102086.22
2022-11-27T09:38:49.415Z,102083.31
2022-11-27T09:41:25.349Z,102097.44
2022-11-27T09:43:57.819Z,102084.16
2022-11-27T09:46:31.281Z,102084.72
2022-11-27T09:49:00.850Z,102089.88
2022-11-27T09:51:45.316Z,102072.81
2022-11-27T09:54:30.611Z,102075.91
2022-11-27T09:56:58.715Z,102063.19
2022-11-27T09:59:36.371Z,102063.88
2022-11-27T10:02:03.017Z,102055.03
2022-11-27T10:04:39.864Z,102054.44
2022-11-27T10:07:25.462Z,102053.19
2022-11-27T10:10:07.345Z,102045.50
2022-11-27T10:12:58.429Z,102046.06
2022-11-27T10:15:31.180Z,102050.31
2022-11-27T10:18:13.177Z,102041.84
2022-11-27T10:20:54.397Z,102027.75
2022-11-27T10:23:49.324Z,102027.25
2022-11-27T10:26:29.235Z,102022.38
2022-11-27T10:29:03.195Z,102019.44
2022-11-27T10:31:38.756Z,102014.56
2022-11-27T10:34:26.786Z,102010.78
2022-11-27T10:36:56.117Z,102006.19
2022-11-27T10:39:41.173Z,102004.44
2022-11-27T10:42:25.996Z,102001.50
2022-11-27T10:45:04.958Z,102002.41
2022-11-27T10:47:33.876Z,101995.44
2022-11-27T10:50:02.066Z,101996.28
2022-11-27T10:52:28.945Z,101995.31
2022-11-27T10:55:16.401Z,101982.91
2022-11-27T10:58:00.966Z,101985.31
2022-11-27T11:00:28.042Z,101982.69
2022-11-27T11:03:03.855Z,101979.78
2022-11-27T11:05:50.609Z,101979.88
2022-11-27T11:08:20.850Z,101968.16
2022-11-27T11:11:03.542Z,101969.69
2022-11-27T11:13:43.655Z,101960.75
2022-11-27T11:16:24.348Z,101966.06
2022-11-27T11:18:53.228Z,101944.00
2022-11-27T11:21:35.190Z,101948.03
2022-11-27T11:24:03.323Z,101939.00
2022-11-27T11:26:38.478Z,101933.56
2022-11-27T11:29:19.887Z,101920.97
2022-11-27T11:31:48.921Z,101928.13
2022-11-27T11:34:27.271Z,101923.59
2022-11-27T11:37:08.327Z,101912.72
2022-11-27T11:39:47.655Z,101902.59
2022-11-27T11:42:23.560Z,101887.47
2022-11-27T11:44:56.188Z,101882.25
2022-11-27T11:47:25.250Z,101896.84
2022-11-27T11:49:53.890Z,101885.72
2022-11-27T11:52:55.187Z,101879.66
2022-11-27T11:55:51.694Z,101887.69
2022-11-27T11:58:50.978Z,101858.44
2022-11-27T12:01:46.781Z,101861.69
2022-11-27T12:04:25.072Z,101856.16
2022-11-27T12:07:08.798Z,101849.72
2022-11-27T12:09:51.081Z,101845.28
2022-11-27T12:12:42.015Z,101825.16
2022-11-27T12:15:11.466Z,101825.91
2022-11-27T12:17:58.822Z,101819.59
2022-11-27T12:20:34.520Z,101823.94
2022-11-27T12:23:31.955Z,101816.44
2022-11-27T12:26:15.831Z,101815.69
2022-11-27T12:29:10.611Z,101839.94
2022-11-27T12:32:19.616Z,101825.13
2022-11-27T12:35:03.093Z,101819.03
2022-11-27T12:37:55.463Z,101814.69
2022-11-27T12:40:25.108Z,101804.69
2022-11-27T12:43:20.587Z,101785.88
2022-11-27T12:46:01.793Z,101775.75
2022-11-27T12:48:53.719Z,101779.44
2022-11-27T12:51:44.419Z,101778.56
2022-11-27T12:55:09.179Z,101779.31
2022-11-27T12:58:14.653Z,101793.94
2022-11-27T13:00:44.862Z,101782.28
2022-11-27T13:04:07.604Z,101787.81
2022-11-27T13:07:12.314Z,101783.38
2022-11-27T13:09:50.822Z,101771.13
2022-11-27T13:12:27.165Z,101741.91
2022-11-27T13:15:02.816Z,101736.94
2022-11-27T13:17:42.692Z,101759.94
2022-11-27T13:20:20.536Z,101771.84
2022-11-27T13:22:48.079Z,101755.50
2022-11-27T13:25:15.203Z,101746.34
2022-11-27T13:27:46.757Z,101742.78
2022-11-27T13:30:22.735Z,101743.63
2022-11-27T13:33:01.830Z,101736.81
2022-11-27T13:35:40.519Z,101740.84
2022-11-27T13:38:09.393Z,101735.41
2022-11-27T13:40:46.536Z,101748.03
2022-11-27T13:43:43.562Z,101752.03
2022-11-27T13:46:20.175Z,101746.94
2022-11-27T13:48:56.446Z,101741.84
2022-11-27T13:51:43.500Z,101737.50
2022-11-27T13:54:22.234Z,101732.28
2022-11-27T13:56:51.176Z,101731.56
2022-11-27T13:59:21.444Z,101712.22
2022-11-27T14:02:01.476Z,101716.66
2022-11-27T14:04:30.951Z,101711.44
2022-11-27T14:07:08.076Z,101705.59
2022-11-27T14:09:47.380Z,101694.91
2022-11-27T14:12:33.552Z,101686.13
2022-11-27T14:15:18.616Z,101674.84
2022-11-27T14:17:47.716Z,101669.59
2022-11-27T14:20:17.553Z,101663.41
2022-11-27T14:23:12.739Z,101660.91
2022-11-27T14:25:40.589Z,101663.13
2022-11-27T14:28:15.765Z,101663.00
2022-11-27T14:30:49.580Z,101652.25
2022-11-27T14:33:47.393Z,101654.31
2022-11-27T14:36:24.958Z,101641.31
2022-11-27T14:38:52.242Z,101642.81
2022-11-27T14:42:04.262Z,101630.44
2022-11-27T14:44:32.106Z,101608.75
2022-11-27T14:47:02.253Z,101633.28
2022-11-27T14:49:31.667Z,101622.91
2022-11-27T14:52:05.858Z,101630.22
2022-11-27T14:54:35.630Z,101625.22
2022-11-27T14:57:02.543Z,101629.44
2022-11-27T14:59:29.343Z,101622.69
2022-11-27T15:02:29.094Z,101627.63
2022-11-27T15:05:05.462Z,101619.47
2022-11-27T15:07:41.934Z,101617.72
2022-11-27T15:10:22.987Z,101598.28
2022-11-27T15:12:51.036Z,101605.47
2022-11-27T15:15:23.728Z,101601.75
2022-11-27T15:18:00.310Z,101592.00
2022-11-27T15:20:34.659Z,101589.84
2022-11-27T15:23:06.535Z,101601.84
2022-11-27T15:25:43.921Z,101586.66
2022-11-27T15:28:28.475Z,101579.50
2022-11-27T15:30:56.154Z,101584.06
2022-11-27T15:33:31.869Z,101579.72
2022-11-27T15:36:21.016Z,101579.59
2022-11-27T15:38:50.885Z,101575.13
2022-11-27T15:41:27.796Z,101575.13
2022-11-27T15:43:55.665Z,101561.94
2022-11-27T15:46:30.322Z,101567.09
2022-11-27T15:48:59.357Z,101575.13
2022-11-27T15:51:26.171Z,101571.56
2022-11-27T15:53:53.052Z,101572.53
2022-11-27T15:56:22.547Z,101565.50
2022-11-27T15:58:49.327Z,101570.66
2022-11-27T16:01:16.008Z,101560.97
2022-11-27T16:03:45.132Z,101545.13
2022-11-27T16:06:14.237Z,101549.75
2022-11-27T16:08:40.809Z,101553.34
2022-11-27T16:11:14.821Z,101531.97
2022-11-27T16:13:41.341Z,101547.28
2022-11-27T16:16:08.915Z,101534.81
2022-11-27T16:18:35.622Z,101534.53
2022-11-27T16:21:07.756Z,101525.66
2022-11-27T16:23:38.435Z,101532.81
2022-11-27T16:26:08.345Z,101521.56
2022-11-27T16:28:37.545Z,101526.88
2022-11-27T16:31:08.534Z,101527.00
2022-11-27T16:33:35.126Z,101522.81
2022-11-27T16:36:12.608Z,101523.81
2022-11-27T16:38:42.378Z,101509.69
2022-11-27T16:41:17.700Z,101497.09
2022-11-27T16:43:47.051Z,101500.44
2022-11-27T16:46:17.311Z,101497.59
2022-11-27T16:48:44.736Z,101489.06
2022-11-27T16:51:17.590Z,101496.88
2022-11-27T16:53:46.651Z,101497.59
2022-11-27T16:56:15.271Z,101459.25
2022-11-27T16:58:43.761Z,101485.34
2022-11-27T17:01:18.257Z,101493.03
2022-11-27T17:03:44.807Z,101479.56
2022-11-27T17:06:14.636Z,101470.91
2022-11-27T17:08:41.618Z,101470.78
2022-11-27T17:11:13.174Z,101473.88
2022-11-27T17:13:44.830Z,101466.09
2022-11-27T17:16:11.591Z,101477.50
2022-11-27T17:18:39.958Z,101474.13
2022-11-27T17:21:34.406Z,101467.25
2022-11-27T17:24:04.303Z,101450.69
2022-11-27T17:26:35.312Z,101463.00
2022-11-27T17:29:03.546Z,101453.31
2022-11-27T17:31:37.108Z,101458.09
2022-11-27T17:34:05.547Z,101458.34
2022-11-27T17:36:36.774Z,101454.28
2022-11-27T17:39:05.854Z,101443.63
2022-11-27T17:41:32.810Z,101435.84
2022-11-27T17:43:59.630Z,101430.50
2022-11-27T17:46:29.304Z,101435.44
2022-11-27T17:48:59.081Z,101433.22
2022-11-27T17:51:26.465Z,101427.28
2022-11-27T17:53:53.265Z,101434.13
2022-11-27T17:56:21.023Z,101428.81
2022-11-27T17:58:50.294Z,101428.91
2022-11-27T18:01:20.249Z,101415.72
2022-11-27T18:03:47.414Z,101427.09
2022-11-27T18:06:15.586Z,101420.38
2022-11-27T18:08:42.674Z,101419.28
2022-11-27T18:11:15.371Z,101407.78
2022-11-27T18:13:42.124Z,101406.41
2022-11-27T18:16:11.612Z,101407.19
2022-11-27T18:18:39.132Z,101396.78
2022-11-27T18:21:16.701Z,101390.22
2022-11-27T18:24:14.549Z,101391.13
2022-11-27T18:26:52.665Z,101396.66
2022-11-27T18:29:18.639Z,101375.53
2022-11-27T18:31:46.731Z,101382.47
2022-11-27T18:34:13.348Z,101378.84
2022-11-27T18:36:39.934Z,101367.50
2022-11-27T18:39:08.794Z,101378.75
2022-11-27T18:41:40.807Z,101368.00
2022-11-27T18:44:07.911Z,101363.44
2022-11-27T18:46:34.629Z,101351.31
2022-11-27T18:49:01.325Z,101361.81
2022-11-27T18:51:27.904Z,101363.69
2022-11-27T18:53:56.012Z,101353.16
2022-11-27T18:56:25.025Z,101347.63
2022-11-27T18:58:54.668Z,101344.91
2022-11-27T19:01:24.638Z,101345.75
2022-11-27T19:03:51.802Z,101356.00
2022-11-27T19:06:20.561Z,101356.84
2022-11-27T19:08:49.475Z,101352.41
2022-11-27T19:11:21.964Z,101351.66
2022-11-27T19:13:49.832Z,101341.28
2022-11-27T19:16:22.648Z,101341.69
2022-11-27T19:18:49.730Z,101344.53
2022-11-27T19:21:21.481Z,101331.06
2022-11-27T19:23:51.849Z,101331.19
2022-11-27T19:26:24.043Z,101319.94
2022-11-27T19:28:52.272Z,101326.84
2022-11-27T19:31:19.901Z,101315.84
2022-11-27T19:33:52.466Z,101299.06
2022-11-27T19:36:19.196Z,101295.06
2022-11-27T19:38:45.733Z,101306.47
2022-11-27T19:41:14.933Z,101296.94
2022-11-27T19:43:41.916Z,101305.22
2022-11-27T19:46:19.826Z,101295.22
2022-11-27T19:48:47.025Z,101294.47
2022-11-27T19:51:14.167Z,101278.28
2022-11-27T19:53:41.899Z,101268.19
2022-11-27T19:56:10.015Z,101266.19
2022-11-27T19:58:37.364Z,101272.38
2022-11-27T20:01:09.193Z,101271.41
2022-11-27T20:03:36.101Z,101263.25
2022-11-27T20:06:08.164Z,101255.94
2022-11-27T20:08:35.388Z,101247.06
2022-11-27T20:11:02.647Z,101246.19
2022-11-27T20:13:31.674Z,101247.06
2022-11-27T20:15:58.332Z,101233.63
2022-11-27T20:18:26.070Z,101229.03
2022-11-27T20:20:52.685Z,101214.22
2022-11-27T20:23:19.219Z,101224.47
2022-11-27T20:25:49.412Z,101216.44
2022-11-27T20:28:16.003Z,101216.31
2022-11-27T20:30:44.789Z,101204.59
2022-11-27T20:33:13.143Z,101211.00
2022-11-27T20:35:42.928Z,101218.16
2022-11-27T20:38:09.478Z,101185.69
2022-11-27T20:40:38.749Z,101210.16
2022-11-27T20:43:05.317Z,101221.00
2022-11-27T20:45:36.212Z,101206.81
2022-11-27T20:48:02.907Z,101210.16
2022-11-27T20:50:31.812Z,101204.22
2022-11-27T20:53:00.861Z,101202.25
2022-11-27T20:55:27.485Z,101190.63
2022-11-27T20:57:56.500Z,101195.84
2022-11-27T21:00:25.904Z,101200.41
2022-11-27T21:02:52.424Z,101195.84
2022-11-27T21:05:20.118Z,101168.66
2022-11-27T21:07:46.805Z,101170.91
2022-11-27T21:10:15.520Z,101175.31
2022-11-27T21:12:42.113Z,101168.53
2022-11-27T21:15:09.288Z,101163.25
2022-11-27T21:17:36.010Z,101179.53
2022-11-27T21:20:04.112Z,101167.81
2022-11-27T21:22:31.590Z,101163.25
2022-11-27T21:24:58.119Z,101142.50
2022-11-27T21:27:24.761Z,101148.81
2022-11-27T21:29:51.367Z,101143.75
2022-11-27T21:32:18.263Z,101147.81
2022-11-27T21:34:44.974Z,101140.66
2022-11-27T21:37:13.766Z,101130.78
2022-11-27T21:39:41.275Z,101138.81
2022-11-27T21:42:08.478Z,101118.28
2022-11-27T21:44:35.064Z,101120.03
2022-11-27T21:47:01.644Z,101120.28
2022-11-27T21:49:28.250Z,101115.59
2022-11-27T21:51:54.985Z,101115.94
2022-11-27T21:54:22.359Z,101109.78
2022-11-27T21:56:51.661Z,101122.38
2022-11-27T21:59:18.387Z,101122.25
2022-11-27T22:01:45.726Z,101103.25
2022-11-27T22:04:12.741Z,101110.50
2022-11-27T22:06:41.828Z,101089.19
2022-11-27T22:09:14.700Z,101096.19
2022-11-27T22:11:42.653Z,101100.28
2022-11-27T22:14:09.681Z,101092.00
2022-11-27T22:16:44.390Z,101087.56
2022-11-27T22:19:11.724Z,101072.38
2022-11-27T22:21:38.294Z,101057.19
2022-11-27T22:24:04.990Z,101076.19
2022-11-27T22:26:34.039Z,101057.44
2022-11-27T22:29:00.577Z,101069.91
2022-11-27T22:31:29.914Z,101074.22
2022-11-27T22:33:57.399Z,101039.16
2022-11-27T22:36:32.726Z,101063.47
2022-11-27T22:39:08.901Z,101065.94
2022-11-27T22:41:37.116Z,101071.25
2022-11-27T22:44:15.222Z,101068.41
2022-11-27T22:46:42.438Z,101058.50
2022-11-27T22:49:11.162Z,101059.13
2022-11-27T22:51:38.253Z,101043.69
2022-11-27T22:54:06.563Z,101041.94
2022-11-27T22:56:36.640Z,101041.44
2022-11-27T22:59:31.775Z,101035.16
2022-11-27T23:01:54.190Z,101044.91
2022-11-27T23:04:20.822Z,101035.16
2022-11-27T23:06:50.377Z,101032.91
2022-11-27T23:09:18.852Z,101032.91
2022-11-27T23:11:45.978Z,101033.91
2022-11-27T23:14:12.661Z,101035.63
2022-11-27T23:16:41.595Z,101040.94
2022-11-27T23:19:11.193Z,101036.22
2022-11-27T23:21:38.892Z,101024.63
2022-11-27T23:24:09.799Z,101030.78
2022-11-27T23:26:39.006Z,101038.69
2022-11-27T23:29:05.602Z,101030.78
2022-11-27T23:31:35.336Z,101019.66
2022-11-27T23:34:07.293Z,101000.81
2022-11-27T23:36:34.787Z,101020.91
2022-11-27T23:39:04.091Z,101032.03
2022-11-27T23:41:31.403Z,101019.41
2022-11-27T23:43:58.371Z,101016.69
2022-11-27T23:46:27.164Z,101020.84
2022-11-27T23:48:55.677Z,101013.34
2022-11-27T23:51:27.412Z,101010.50
2022-11-27T23:53:54.498Z,101005.66
2022-11-27T23:56:24.048Z,100996.63
2022-11-27T23:58:50.614Z,101007.97
